Time;durP1;ratioP1;P1;durP2;ratioP2;P2;SDS_P1;SDS_P2;PMS_P1;PMS_P2;Temp;Humidity;BMP_temperature;BMP_pressure;BME280_temperature;BME280_humidity;BME280_pressure;Samples;Min_cycle;Max_cycle;Signal;HPM_P1;HPM_P2
2023/04/14 00:00:24;;;;;;;25.90;14.73;;;;;;;-144.73;100.00;54481.59;5003973;28;20037;-72
2023/04/14 00:02:50;;;;;;;22.67;13.50;;;;;;;-144.73;100.00;54539.06;5025211;28;20028;-72
2023/04/14 00:05:15;;;;;;;22.98;13.45;;;;;;;-144.73;100.00;54487.75;5004140;28;20134;-72
2023/04/14 00:07:41;;;;;;;21.83;13.63;;;;;;;-144.73;100.00;54514.44;4996471;28;20034;-72
2023/04/14 00:10:06;;;;;;;33.42;18.63;;;;;;;-144.73;100.00;54510.31;5008686;28;20038;-72
2023/04/14 00:12:32;;;;;;;29.88;17.63;;;;;;;-144.73;100.00;54551.38;5001174;28;20053;-72
2023/04/14 00:14:57;;;;;;;34.25;17.75;;;;;;;-144.73;100.00;54518.53;5031968;28;20060;-72
2023/04/14 00:17:23;;;;;;;27.23;16.17;;;;;;;-144.73;100.00;54477.47;5022223;28;20065;-72
2023/04/14 00:19:48;;;;;;;23.25;14.13;;;;;;;-144.73;100.00;54498.00;4991918;28;20371;-72
2023/04/14 00:22:13;;;;;;;28.08;16.35;;;;;;;-144.73;100.00;54524.69;5001967;28;20033;-72
2023/04/14 00:24:42;;;;;;;36.47;19.65;;;;;;;-144.73;100.00;54485.69;5000147;28;20037;-72
2023/04/14 00:27:11;;;;;;;49.17;25.50;;;;;;;-144.73;100.00;54510.31;5018305;28;20056;-72
2023/04/14 00:29:39;;;;;;;36.60;20.25;;;;;;;-144.73;100.00;54485.69;5017186;28;20025;-72
2023/04/14 00:32:05;;;;;;;31.98;17.55;;;;;;;-144.73;100.00;54530.84;5010321;28;20037;-72
2023/04/14 00:34:30;;;;;;;30.77;17.25;;;;;;;-144.73;100.00;54477.47;5002903;28;20030;-72
2023/04/14 00:36:56;;;;;;;26.83;15.75;;;;;;;-144.73;100.00;54514.44;5005019;28;20046;-72
2023/04/14 00:39:21;;;;;;;29.42;15.30;;;;;;;-144.73;100.00;54510.31;5012315;28;20050;-72
2023/04/14 00:41:47;;;;;;;27.35;14.32;;;;;;;-144.73;100.00;54456.97;5009610;28;20040;-72
2023/04/14 00:44:12;;;;;;;22.45;14.60;;;;;;;-144.73;100.00;54500.06;5003226;28;20090;-72
2023/04/14 00:46:39;;;;;;;26.80;14.73;;;;;;;-144.73;100.00;54510.31;5015189;28;20040;-72
2023/04/14 00:49:05;;;;;;;28.55;14.90;;;;;;;-144.73;100.00;54506.22;5014340;28;20095;-72
2023/04/14 00:51:31;;;;;;;27.67;16.27;;;;;;;-144.73;100.00;54514.44;5007980;28;20385;-72
2023/04/14 00:53:57;;;;;;;24.73;14.93;;;;;;;-144.73;100.00;54506.22;5025069;28;20026;-72
2023/04/14 00:56:25;;;;;;;29.85;17.63;;;;;;;-144.73;100.00;54514.44;5002432;28;20113;-72
2023/04/14 00:58:51;;;;;;;30.02;15.82;;;;;;;-144.73;100.00;54495.97;4994670;28;20428;-72
2023/04/14 01:01:16;;;;;;;28.98;16.58;;;;;;;-144.73;100.00;54541.13;5011376;28;20029;-71
2023/04/14 01:03:42;;;;;;;26.75;15.38;;;;;;;-144.73;100.00;54522.63;5012080;28;20021;-72
2023/04/14 01:06:08;;;;;;;36.80;19.33;;;;;;;-144.73;100.00;54514.44;5010584;28;20037;-72
2023/04/14 01:08:33;;;;;;;41.22;21.60;;;;;;;-144.73;100.00;54493.91;4995725;28;20533;-72
2023/04/14 01:11:17;;;;;;;26.45;16.50;;;;;;;-144.73;100.00;54541.13;4991327;28;20698;-72
2023/04/14 01:13:55;;;;;;;34.22;19.92;;;;;;;-144.73;100.00;54465.16;4997971;28;20037;-72
2023/04/14 01:16:28;;;;;;;27.50;17.15;;;;;;;-144.73;100.00;54498.00;5013226;28;20116;-72
2023/04/14 01:19:14;;;;;;;30.77;16.63;;;;;;;-144.73;100.00;54493.91;5014866;28;20175;-72
2023/04/14 01:21:45;;;;;;;29.98;17.23;;;;;;;-144.73;100.00;54502.13;5024713;28;20033;-71
2023/04/14 01:24:20;;;;;;;30.80;18.80;;;;;;;-144.73;100.00;54489.81;4978629;28;20026;-71
2023/04/14 01:26:46;;;;;;;36.08;21.55;;;;;;;-144.73;100.00;54498.00;5001804;28;20061;-71
2023/04/14 01:29:31;;;;;;;34.03;18.63;;;;;;;-144.73;100.00;54483.66;4998446;28;20030;-72
2023/04/14 01:32:22;;;;;;;38.05;20.27;;;;;;;-144.73;100.00;54514.44;5026318;28;20113;-72
2023/04/14 01:34:56;;;;;;;30.48;17.80;;;;;;;-144.73;100.00;54493.91;5003539;28;20029;-72
2023/04/14 01:37:51;;;;;;;32.85;18.73;;;;;;;-144.73;100.00;54481.59;4999324;28;20029;-72
2023/04/14 01:40:19;;;;;;;25.00;14.13;;;;;;;-144.73;100.00;54506.22;5001524;28;20040;-72
2023/04/14 01:42:50;;;;;;;28.00;16.52;;;;;;;-144.73;100.00;54487.75;5004067;28;20461;-72
2023/04/14 01:45:21;;;;;;;26.25;15.70;;;;;;;-144.73;100.00;54481.59;5018866;28;20050;-72
2023/04/14 01:47:48;;;;;;;21.77;12.40;;;;;;;-144.73;100.00;54485.69;5014722;28;20017;-73
2023/04/14 01:50:16;;;;;;;35.40;18.85;;;;;;;-144.73;100.00;54491.84;5013111;28;20045;-72
2023/04/14 01:52:43;;;;;;;30.45;18.00;;;;;;;-144.73;100.00;54469.28;5034419;28;20022;-73
2023/04/14 01:55:10;;;;;;;30.38;16.58;;;;;;;-144.73;100.00;54495.97;5002433;28;20038;-73
2023/04/14 01:57:38;;;;;;;31.45;17.48;;;;;;;-144.73;100.00;54489.81;5009176;28;20030;-72
2023/04/14 02:00:06;;;;;;;33.22;16.95;;;;;;;-144.73;100.00;54498.00;5016880;28;20071;-73
2023/04/14 02:02:34;;;;;;;27.88;16.48;;;;;;;-144.73;100.00;54489.81;5002958;28;20046;-73
2023/04/14 02:05:01;;;;;;;32.75;18.90;;;;;;;-144.73;100.00;54522.63;5013408;28;20025;-73
2023/04/14 02:07:29;;;;;;;31.08;17.52;;;;;;;-144.73;100.00;54502.13;5000635;28;20014;-73
2023/04/14 02:09:56;;;;;;;29.40;15.93;;;;;;;-144.73;100.00;54485.69;4999573;28;20064;-73
2023/04/14 02:12:23;;;;;;;30.05;13.98;;;;;;;-144.73;100.00;54498.00;5014463;28;20033;-73
2023/04/14 02:14:50;;;;;;;30.95;15.90;;;;;;;-144.73;100.00;54530.84;5013605;28;20026;-73
2023/04/14 02:17:18;;;;;;;30.42;17.70;;;;;;;-144.73;100.00;54440.53;5024083;28;20029;-73
2023/04/14 02:19:45;;;;;;;26.70;15.40;;;;;;;-144.73;100.00;54539.06;5016992;28;20021;-72
2023/04/14 02:22:10;;;;;;;30.08;15.98;;;;;;;-144.73;100.00;54502.13;5017347;28;20029;-72
2023/04/14 02:24:35;;;;;;;29.55;15.43;;;;;;;-144.73;100.00;54473.38;5035012;28;20029;-73
2023/04/14 02:27:07;;;;;;;29.33;17.83;;;;;;;-144.73;100.00;54469.28;5034757;28;20032;-72
2023/04/14 02:29:33;;;;;;;;;;;;;;;-144.73;100.00;54510.31;5018178;28;20028;-72
2023/04/14 02:32:03;;;;;;;34.88;18.40;;;;;;;-144.73;100.00;54506.22;5034658;28;19920;-73
2023/04/14 02:34:37;;;;;;;32.88;16.75;;;;;;;-144.73;100.00;54506.22;5035244;28;20083;-73
2023/04/14 02:37:12;;;;;;;26.83;14.43;;;;;;;-144.73;100.00;54518.53;5033535;28;20052;-72
2023/04/14 02:39:44;;;;;;;31.40;17.42;;;;;;;-144.73;100.00;54489.81;5008762;28;20059;-73
2023/04/14 02:42:15;;;;;;;28.50;16.15;;;;;;;-144.73;100.00;54555.47;5014546;28;20037;-73
2023/04/14 02:44:47;;;;;;;29.40;17.67;;;;;;;-144.73;100.00;54493.91;5002276;28;20026;-71
2023/04/14 02:47:26;;;;;;;35.10;19.30;;;;;;;-144.73;100.00;54514.44;5024244;28;20720;-71
2023/04/14 02:49:53;;;;;;;31.80;18.38;;;;;;;-144.73;100.00;54498.00;5001840;28;20032;-71
2023/04/14 02:52:20;;;;;;;27.50;16.40;;;;;;;-144.73;100.00;54485.69;5008600;28;20113;-71
2023/04/14 02:54:47;;;;;;;30.52;16.20;;;;;;;-144.73;100.00;54502.13;5009102;28;20072;-71
2023/04/14 02:57:13;;;;;;;30.30;15.82;;;;;;;-144.73;100.00;54481.59;5031453;28;20017;-71
2023/04/14 02:59:41;;;;;;;28.20;16.98;;;;;;;-144.73;100.00;54508.28;5000303;28;20450;-72
2023/04/14 03:02:10;;;;;;;27.00;15.85;;;;;;;-144.73;100.00;54452.84;5011122;28;20034;-72
2023/04/14 03:04:37;;;;;;;25.15;15.52;;;;;;;-144.73;100.00;54500.06;5000991;28;20032;-71
2023/04/14 03:07:08;;;;;;;29.38;15.32;;;;;;;-144.73;100.00;54493.91;4997516;28;20030;-71
2023/04/14 03:09:33;;;;;;;27.40;16.65;;;;;;;-144.73;100.00;54493.91;5008832;28;20104;-72
2023/04/14 03:12:01;;;;;;;22.55;12.77;;;;;;;-144.73;100.00;54502.13;5021930;28;20104;-72
2023/04/14 03:14:27;;;;;;;21.48;12.48;;;;;;;-144.73;100.00;54491.84;5034687;28;20036;-72
2023/04/14 03:16:54;;;;;;;27.98;16.60;;;;;;;-144.73;100.00;54452.84;4999902;28;20030;-71
2023/04/14 03:19:22;;;;;;;21.20;12.95;;;;;;;-144.73;100.00;54514.44;5016845;28;20021;-72
2023/04/14 03:21:49;;;;;;;26.92;14.98;;;;;;;-144.73;100.00;54477.47;5016884;28;20026;-72
2023/04/14 03:24:23;;;;;;;26.15;15.98;;;;;;;-144.73;100.00;54514.44;5016917;28;20032;-72
2023/04/14 03:26:56;;;;;;;26.27;14.60;;;;;;;-144.73;100.00;54522.63;5034375;28;20030;-72
2023/04/14 03:29:25;;;;;;;27.27;15.73;;;;;;;-144.73;100.00;54502.13;5006733;28;20033;-73
2023/04/14 03:31:55;;;;;;;32.20;15.80;;;;;;;-144.73;100.00;54461.06;4999938;28;20041;-72
2023/04/14 03:34:26;;;;;;;25.98;14.95;;;;;;;-144.73;100.00;54518.53;5010319;28;20032;-72
2023/04/14 03:36:55;;;;;;;27.00;15.00;;;;;;;-144.73;100.00;54539.06;5019053;28;20037;-72
2023/04/14 03:39:26;;;;;;;25.55;15.85;;;;;;;-144.73;100.00;54469.28;5032656;28;20098;-72
2023/04/14 03:41:54;;;;;;;22.48;13.93;;;;;;;-144.73;100.00;54522.63;5028778;28;20585;-72
2023/04/14 03:44:22;;;;;;;28.10;14.57;;;;;;;-144.73;100.00;54506.22;5019448;28;20235;-72
2023/04/14 03:46:48;;;;;;;25.98;14.55;;;;;;;-144.73;100.00;54489.81;5020954;28;20152;-72
2023/04/14 03:49:16;;;;;;;27.40;12.27;;;;;;;-144.73;100.00;54518.53;5012022;28;20484;-72
2023/04/14 03:51:42;;;;;;;24.60;14.55;;;;;;;-144.73;100.00;54459.00;5029880;28;20037;-72
2023/04/14 03:54:10;;;;;;;28.17;16.30;;;;;;;-144.73;100.00;54502.13;5004738;28;20029;-72
2023/04/14 03:56:39;;;;;;;24.80;13.20;;;;;;;-144.73;100.00;54498.00;5031615;28;20175;-72
2023/04/14 03:59:10;;;;;;;24.67;14.57;;;;;;;-144.73;100.00;54541.13;5031084;28;20049;-72
2023/04/14 04:01:38;;;;;;;24.85;14.20;;;;;;;-144.73;100.00;54514.44;5003751;28;20109;-72
2023/04/14 04:04:05;;;;;;;23.98;13.52;;;;;;;-144.73;100.00;54514.44;5023808;28;20031;-72
2023/04/14 04:06:32;;;;;;;25.67;14.50;;;;;;;-144.73;100.00;54502.13;5027889;28;20041;-72
2023/04/14 04:09:00;;;;;;;30.33;15.85;;;;;;;-144.73;100.00;54539.06;4998409;28;20033;-72
2023/04/14 04:11:26;;;;;;;29.08;15.07;;;;;;;-144.73;100.00;54530.84;5008125;28;20033;-72
2023/04/14 04:13:54;;;;;;;23.27;13.90;;;;;;;-144.73;100.00;54504.16;5029151;28;20112;-72
2023/04/14 04:16:23;;;;;;;27.15;15.15;;;;;;;-144.73;100.00;54493.91;5006378;28;20030;-72
2023/04/14 04:18:49;;;;;;;23.23;13.57;;;;;;;-144.73;100.00;54514.44;5010257;28;20033;-72
2023/04/14 04:21:17;;;;;;;29.30;15.95;;;;;;;-144.73;100.00;54528.81;4998450;28;20022;-72
2023/04/14 04:23:47;;;;;;;40.67;17.77;;;;;;;-144.73;100.00;54502.13;5013374;28;20051;-72
2023/04/14 04:26:13;;;;;;;30.02;14.70;;;;;;;-144.73;100.00;54498.00;5016768;28;20101;-72
2023/04/14 04:28:39;;;;;;;29.00;15.23;;;;;;;-144.73;100.00;54508.28;4999977;28;20127;-72
2023/04/14 04:31:05;;;;;;;25.88;12.77;;;;;;;-144.73;100.00;54465.16;4994309;28;20030;-72
2023/04/14 04:33:31;;;;;;;27.83;14.52;;;;;;;-144.73;100.00;54543.16;5020599;28;20044;-72
2023/04/14 04:35:56;;;;;;;24.75;14.80;;;;;;;-144.73;100.00;54485.69;5013394;28;20035;-73
2023/04/14 04:38:22;;;;;;;27.70;13.43;;;;;;;-144.73;100.00;54508.28;5009153;28;20033;-73
2023/04/14 04:40:47;;;;;;;28.13;14.10;;;;;;;-144.73;100.00;54481.59;5012289;28;20029;-72
2023/04/14 04:43:13;;;;;;;27.08;14.93;;;;;;;-144.73;100.00;54514.44;4997727;28;20030;-72
2023/04/14 04:45:49;;;;;;;27.95;14.57;;;;;;;-144.73;100.00;54530.84;5012356;28;20034;-72
2023/04/14 04:48:14;;;;;;;26.48;15.30;;;;;;;-144.73;100.00;54481.59;5032959;28;20021;-72
2023/04/14 04:50:40;;;;;;;26.10;13.20;;;;;;;-144.73;100.00;54469.28;5031001;28;20099;-72
2023/04/14 04:53:06;;;;;;;31.52;15.13;;;;;;;-144.73;100.00;54504.16;5015035;28;20036;-72
2023/04/14 04:55:31;;;;;;;27.92;15.07;;;;;;;-144.73;100.00;54487.75;5032154;28;20026;-72
2023/04/14 04:57:56;;;;;;;24.33;12.50;;;;;;;-144.73;100.00;54485.69;5004832;28;20022;-73
2023/04/14 05:00:22;;;;;;;24.75;12.30;;;;;;;-144.73;100.00;54522.63;5003749;28;20065;-72
2023/04/14 05:02:47;;;;;;;29.13;15.60;;;;;;;-144.73;100.00;54510.31;5000402;28;20116;-72
2023/04/14 05:05:13;;;;;;;28.88;13.75;;;;;;;-144.73;100.00;54506.22;4993156;28;20035;-73
2023/04/14 05:07:38;;;;;;;27.75;13.90;;;;;;;-144.73;100.00;54465.16;4992127;28;20018;-72
2023/04/14 05:10:04;;;;;;;23.73;13.82;;;;;;;-144.73;100.00;54502.13;5019444;28;20030;-72
2023/04/14 05:12:29;;;;;;;27.02;13.38;;;;;;;-144.73;100.00;54510.31;5019592;28;20034;-72
2023/04/14 05:14:55;;;;;;;29.75;14.70;;;;;;;-144.73;100.00;54493.91;4999268;28;20021;-72
2023/04/14 05:17:20;;;;;;;31.20;15.30;;;;;;;-144.73;100.00;54485.69;5025640;28;20040;-72
2023/04/14 05:19:46;;;;;;;25.85;13.93;;;;;;;-144.73;100.00;54495.97;5020204;28;20393;-72
2023/04/14 05:22:11;;;;;;;28.67;14.18;;;;;;;-144.73;100.00;54456.97;5025675;28;20109;-72
2023/04/14 05:24:38;;;;;;;27.50;12.93;;;;;;;-144.73;100.00;54485.69;5013797;28;20021;-72
2023/04/14 05:27:03;;;;;;;21.83;12.98;;;;;;;-144.73;100.00;54510.31;4997113;28;20041;-72
2023/04/14 05:29:28;;;;;;;29.13;13.63;;;;;;;-144.73;100.00;54463.13;5018496;28;20025;-72
2023/04/14 05:31:54;;;;;;;21.08;11.65;;;;;;;-144.73;100.00;54502.13;5030515;28;20036;-73
2023/04/14 05:34:19;;;;;;;26.58;11.10;;;;;;;-144.73;100.00;54522.63;5004143;28;20057;-73
2023/04/14 05:36:44;;;;;;;22.65;10.52;;;;;;;-144.73;100.00;54522.63;5022755;28;20068;-73
2023/04/14 05:39:10;;;;;;;28.85;14.50;;;;;;;-144.73;100.00;54508.28;5016934;28;20041;-73
2023/04/14 05:41:35;;;;;;;22.20;11.32;;;;;;;-144.73;100.00;54514.44;5022392;28;20038;-73
2023/04/14 05:44:02;;;;;;;25.55;12.68;;;;;;;-144.73;100.00;54493.91;5019200;28;20040;-73
2023/04/14 05:46:27;;;;;;;29.83;15.00;;;;;;;-144.73;100.00;54469.28;5016469;28;20042;-73
2023/04/14 05:48:53;;;;;;;33.90;16.80;;;;;;;-144.73;100.00;54522.63;5011773;28;20030;-74
2023/04/14 05:51:18;;;;;;;24.15;11.98;;;;;;;-144.73;100.00;54493.91;5011918;28;20512;-72
2023/04/14 05:53:43;;;;;;;28.45;13.98;;;;;;;-144.73;100.00;54506.22;4992874;28;20030;-72
2023/04/14 05:56:10;;;;;;;27.23;15.43;;;;;;;-144.73;100.00;54539.06;5006208;28;20042;-72
2023/04/14 05:58:36;;;;;;;30.42;15.93;;;;;;;-144.73;100.00;54514.44;5002154;28;20473;-73
2023/04/14 06:01:02;;;;;;;28.77;13.85;;;;;;;-144.73;100.00;54489.81;5010562;28;20117;-72
2023/04/14 06:03:28;;;;;;;26.67;13.18;;;;;;;-144.73;100.00;54489.81;5003124;28;20123;-73
2023/04/14 06:05:54;;;;;;;26.30;12.95;;;;;;;-144.73;100.00;54555.47;5021663;28;20065;-73
2023/04/14 06:08:20;;;;;;;26.00;11.70;;;;;;;-144.73;100.00;54506.22;5018447;28;20511;-72
2023/04/14 06:10:45;;;;;;;27.13;14.00;;;;;;;-144.73;100.00;54518.53;4994398;28;20065;-72
2023/04/14 06:13:11;;;;;;;31.92;15.02;;;;;;;-144.73;100.00;54502.13;5003700;28;20114;-73
2023/04/14 06:15:36;;;;;;;25.77;14.48;;;;;;;-144.73;100.00;54539.06;5001508;28;20030;-73
2023/04/14 06:18:02;;;;;;;27.45;13.30;;;;;;;-144.73;100.00;54510.31;4996204;28;20044;-72
2023/04/14 06:20:28;;;;;;;28.60;13.65;;;;;;;-144.73;100.00;54502.13;5012369;28;20489;-72
2023/04/14 06:22:53;;;;;;;21.17;10.70;;;;;;;-144.73;100.00;54522.63;4996696;28;20021;-74
2023/04/14 06:25:19;;;;;;;23.15;11.07;;;;;;;-144.73;100.00;54514.44;4995370;28;20516;-72
2023/04/14 06:27:44;;;;;;;26.75;12.27;;;;;;;-144.73;100.00;54514.44;4998737;28;20045;-72
2023/04/14 06:30:10;;;;;;;28.65;12.60;;;;;;;-144.73;100.00;54510.31;5009361;28;20034;-72
2023/04/14 06:32:36;;;;;;;34.83;11.90;;;;;;;-144.73;100.00;54543.16;5006086;28;20021;-72
2023/04/14 06:35:01;;;;;;;26.33;10.55;;;;;;;-144.73;100.00;54526.75;5003067;28;20044;-69
2023/04/14 06:37:26;;;;;;;20.85;10.85;;;;;;;-144.73;100.00;54477.47;5007533;28;20197;-69
2023/04/14 06:39:52;;;;;;;21.33;9.40;;;;;;;-144.73;100.00;54553.44;4989033;28;20025;-69
2023/04/14 06:42:17;;;;;;;23.45;11.52;;;;;;;-144.73;100.00;54506.22;5028361;28;20026;-70
2023/04/14 06:44:42;;;;;;;21.05;10.32;;;;;;;-144.73;100.00;54547.28;4994053;28;20053;-69
2023/04/14 06:47:08;;;;;;;19.83;11.30;;;;;;;-144.73;100.00;54483.66;4997758;28;20044;-70
2023/04/14 06:49:33;;;;;;;20.50;10.10;;;;;;;-144.73;100.00;54514.44;5021180;28;20072;-70
2023/04/14 06:51:59;;;;;;;25.10;10.80;;;;;;;-144.73;100.00;54493.91;5001469;28;20399;-70
2023/04/14 06:54:24;;;;;;;23.50;10.70;;;;;;;-144.73;100.00;54530.84;4982221;28;20057;-71
2023/04/14 06:56:50;;;;;;;24.67;9.77;;;;;;;-144.73;100.00;54512.38;5008171;28;20025;-70
2023/04/14 06:59:15;;;;;;;20.85;10.32;;;;;;;-144.73;100.00;54502.13;4995432;28;20034;-69
2023/04/14 07:01:41;;;;;;;22.48;10.70;;;;;;;-144.73;100.00;54604.75;5003245;28;20124;-69
2023/04/14 07:04:06;;;;;;;23.85;11.75;;;;;;;-144.73;100.00;54530.84;4985645;28;20049;-69
2023/04/14 07:06:32;;;;;;;34.10;11.48;;;;;;;-144.73;100.00;54522.63;4996361;28;20037;-69
2023/04/14 07:08:57;;;;;;;18.25;9.48;;;;;;;-144.73;100.00;54539.06;5011475;28;20025;-69
2023/04/14 07:11:22;;;;;;;21.05;10.57;;;;;;;-144.73;100.00;54520.59;5024229;28;20038;-69
2023/04/14 07:13:48;;;;;;;22.00;11.45;;;;;;;-144.73;100.00;54512.38;4985332;28;20068;-69
2023/04/14 07:16:13;;;;;;;24.08;10.05;;;;;;;-144.73;100.00;54559.59;5013055;28;20037;-69
2023/04/14 07:18:38;;;;;;;25.48;11.35;;;;;;;-144.73;100.00;54547.28;5015821;28;20116;-69
2023/04/14 07:21:04;;;;;;;27.67;10.68;;;;;;;-144.73;100.00;54502.13;4986903;28;20060;-70
2023/04/14 07:23:29;;;;;;;19.33;9.25;;;;;;;-144.73;100.00;54514.44;4990817;28;20074;-69
2023/04/14 07:25:57;;;;;;;19.42;9.27;;;;;;;-144.73;100.00;54467.22;4991426;28;20558;-70
2023/04/14 07:28:24;;;;;;;28.10;8.25;;;;;;;-144.73;100.00;54516.47;5003015;28;20071;-69
2023/04/14 07:30:50;;;;;;;17.05;6.60;;;;;;;-144.73;100.00;54514.44;5010538;28;20045;-70
2023/04/14 07:33:17;;;;;;;21.98;8.20;;;;;;;-144.73;100.00;54504.16;5014320;28;20040;-69
2023/04/14 07:35:44;;;;;;;16.20;6.28;;;;;;;-144.73;100.00;54516.47;5000370;28;20111;-69
2023/04/14 07:38:09;;;;;;;19.77;6.38;;;;;;;-144.73;100.00;54508.28;4986679;28;20034;-70
2023/04/14 07:40:35;;;;;;;18.00;5.47;;;;;;;-144.73;100.00;54493.91;5004376;28;20121;-70
2023/04/14 07:43:00;;;;;;;13.73;5.00;;;;;;;-144.73;100.00;54500.06;5004438;28;20036;-70
2023/04/14 07:45:26;;;;;;;17.75;5.05;;;;;;;-144.73;100.00;54530.84;5004636;28;20185;-70
2023/04/14 07:47:51;;;;;;;23.17;4.70;;;;;;;-144.73;100.00;54510.31;5004453;28;20017;-70
2023/04/14 07:50:17;;;;;;;15.18;4.45;;;;;;;-144.73;100.00;54522.63;4983281;28;20136;-70
2023/04/14 07:52:42;;;;;;;19.88;4.72;;;;;;;-144.73;100.00;54514.44;5005245;28;20017;-70
2023/04/14 07:55:08;;;;;;;18.52;4.05;;;;;;;-144.73;100.00;54539.06;4983957;28;20109;-70
2023/04/14 07:57:34;;;;;;;9.82;3.92;;;;;;;-144.73;100.00;54510.31;5011128;28;20129;-70
2023/04/14 07:59:59;;;;;;;14.40;3.47;;;;;;;-144.73;100.00;54498.00;4991591;28;20046;-70
2023/04/14 08:02:25;;;;;;;9.32;3.42;;;;;;;-144.73;100.00;54504.16;4985766;28;20022;-70
2023/04/14 08:04:50;;;;;;;17.77;3.60;;;;;;;-144.73;100.00;54463.13;5011673;28;20392;-70
2023/04/14 08:07:15;;;;;;;8.38;2.92;;;;;;;-144.73;100.00;54539.06;4996652;28;20024;-69
2023/04/14 08:09:41;;;;;;;12.35;3.13;;;;;;;-144.73;100.00;54485.69;4996357;28;20033;-69
2023/04/14 08:12:06;;;;;;;10.70;2.85;;;;;;;-144.73;99.51;54547.28;5005532;28;20137;-69
2023/04/14 08:14:32;;;;;;;16.08;3.60;;;;;;;-144.73;99.35;54481.59;4995084;28;20048;-70
2023/04/14 08:16:57;;;;;;;13.13;2.80;;;;;;;-144.73;95.61;54500.06;4990750;28;20038;-70
2023/04/14 08:19:23;;;;;;;14.50;3.20;;;;;;;-144.73;97.19;54479.53;5006447;28;20022;-69
2023/04/14 08:21:48;;;;;;;17.08;3.00;;;;;;;-144.73;95.98;54489.81;4995632;28;20048;-69
2023/04/14 08:24:14;;;;;;;17.63;3.03;;;;;;;-144.73;94.18;54487.75;5001640;28;20021;-69
2023/04/14 08:26:39;;;;;;;17.40;3.00;;;;;;;-144.73;92.78;54510.31;5026476;28;20026;-69
2023/04/14 08:29:05;;;;;;;18.00;2.95;;;;;;;-144.73;91.43;54489.81;5011985;28;20049;-69
2023/04/14 08:31:31;;;;;;;18.23;2.97;;;;;;;-144.73;90.72;54475.44;4992254;28;20068;-70
2023/04/14 08:33:57;;;;;;;13.07;2.72;;;;;;;-144.73;89.93;54604.75;4998391;28;20021;-69
2023/04/14 08:36:22;;;;;;;36.70;9.02;;;;;;;-144.73;87.23;54512.38;5014145;28;20034;-69
2023/04/14 08:38:48;;;;;;;14.95;3.40;;;;;;;-144.73;87.63;54500.06;5008977;28;20033;-69
2023/04/14 08:41:14;;;;;;;12.68;2.63;;;;;;;-144.73;87.40;54485.69;4984857;28;20030;-69
2023/04/14 08:43:40;;;;;;;21.17;2.85;;;;;;;-144.73;86.45;54510.31;5012795;28;20036;-69
2023/04/14 08:46:09;;;;;;;12.45;2.30;;;;;;;-144.73;85.64;54510.31;4994018;28;20029;-71
2023/04/14 08:48:36;;;;;;;11.73;3.13;;;;;;;-144.73;84.23;54493.91;4999988;28;20030;-69
2023/04/14 08:51:25;;;;;;;12.52;2.75;;;;;;;-144.73;84.27;54481.59;4991016;28;20038;-69
2023/04/14 08:53:53;;;;;;;12.10;2.22;;;;;;;-144.73;82.88;54498.00;5011803;28;20042;-70
2023/04/14 08:56:20;;;;;;;16.65;3.20;;;;;;;-144.73;82.61;54506.22;5005696;28;20038;-69
2023/04/14 08:58:46;;;;;;;11.85;2.15;;;;;;;-144.73;81.77;54498.00;5003607;28;20117;-69
2023/04/14 09:01:12;;;;;;;10.77;2.53;;;;;;;-144.73;81.48;54485.69;4985831;28;20125;-69
2023/04/14 09:03:38;;;;;;;16.02;2.80;;;;;;;-144.73;80.84;54506.22;4987735;28;20026;-70
2023/04/14 09:06:05;;;;;;;19.10;2.47;;;;;;;-144.73;82.03;54485.69;4985694;28;20030;-69
2023/04/14 09:08:32;;;;;;;14.77;3.03;;;;;;;-144.73;80.03;54469.28;4986916;28;20025;-69
2023/04/14 09:11:02;;;;;;;11.70;2.38;;;;;;;-144.73;80.09;54461.06;4986228;28;20026;-69
2023/04/14 09:13:28;;;;;;;7.47;2.67;;;;;;;-144.73;80.93;54502.13;4987176;28;20034;-70
2023/04/14 09:15:54;;;;;;;10.70;2.65;;;;;;;-144.73;80.11;54498.00;5004445;28;20030;-69
2023/04/14 09:18:21;;;;;;;9.30;2.70;;;;;;;-144.73;81.26;54485.69;4989593;28;20037;-69
2023/04/14 09:20:46;;;;;;;11.63;2.78;;;;;;;-144.73;80.39;54498.00;4990702;28;20068;-69
2023/04/14 09:23:13;;;;;;;11.32;3.15;;;;;;;-144.73;79.88;54518.53;5012185;28;20493;-69
2023/04/14 09:25:40;;;;;;;12.52;2.53;;;;;;;-144.73;79.40;54461.06;5011142;28;20052;-70
2023/04/14 09:28:05;;;;;;;16.95;3.13;;;;;;;-144.73;79.54;54469.28;4990584;28;20022;-69
2023/04/14 09:30:31;;;;;;;12.55;2.47;;;;;;;-144.73;78.82;54436.44;4984888;28;20081;-70
2023/04/14 09:32:57;;;;;;;12.32;3.22;;;;;;;-144.73;79.14;54510.31;4987092;28;20022;-70
2023/04/14 09:35:41;;;;;;;10.02;2.33;;;;;;;-144.73;77.58;54514.44;4986465;28;20049;-70
2023/04/14 09:38:06;;;;;;;6.80;2.15;;;;;;;-144.73;76.85;54456.97;4994303;28;20119;-70
2023/04/14 09:40:32;;;;;;;7.78;1.90;;;;;;;-144.73;77.73;54502.13;4992301;28;20113;-71
2023/04/14 09:42:59;;;;;;;11.45;2.63;;;;;;;-144.73;77.21;54469.28;4993711;28;20025;-70
2023/04/14 09:45:43;;;;;;;9.23;2.40;;;;;;;-144.73;76.79;54469.28;4996846;28;20119;-70
2023/04/14 09:48:09;;;;;;;9.80;2.22;;;;;;;-144.73;77.73;54477.47;4991166;28;20026;-70
2023/04/14 09:51:05;;;;;;;6.93;2.22;;;;;;;-144.73;74.73;54604.75;5013710;28;20037;-70
2023/04/14 09:53:33;;;;;;;13.02;2.67;;;;;;;-144.73;74.29;54514.44;5011624;28;20029;-70
2023/04/14 09:56:01;;;;;;;6.97;2.20;;;;;;;-144.73;72.01;54514.44;5002574;28;20091;-70
2023/04/14 09:58:32;;;;;;;14.82;2.38;;;;;;;-144.73;70.18;54469.28;4993776;28;20045;-70
2023/04/14 10:00:58;;;;;;;18.25;2.72;;;;;;;-144.73;72.62;54481.59;5011959;28;21877;-71
2023/04/14 10:03:36;;;;;;;10.10;2.13;;;;;;;-144.73;71.27;54428.22;4998104;28;20041;-70
2023/04/14 10:06:06;;;;;;;9.88;1.85;;;;;;;-144.73;71.86;54473.38;4998571;28;20065;-71
2023/04/14 10:08:39;;;;;;;9.68;2.15;;;;;;;-144.73;72.01;54452.84;4993721;28;20014;-70
2023/04/14 10:11:24;;;;;;;8.65;2.05;;;;;;;-144.73;72.04;54481.59;4989693;28;20053;-69
2023/04/14 10:13:56;;;;;;;7.18;2.17;;;;;;;-144.73;72.36;54463.13;5022089;28;20093;-70
2023/04/14 10:16:22;;;;;;;8.00;1.77;;;;;;;-144.73;70.65;54489.81;4989310;28;20065;-70
2023/04/14 10:18:48;;;;;;;6.80;1.52;;;;;;;-144.73;71.03;54495.97;5004380;28;20013;-70
2023/04/14 10:21:15;;;;;;;11.15;2.00;;;;;;;-144.73;70.06;54465.16;4992928;28;20089;-69
2023/04/14 10:23:41;;;;;;;11.20;2.80;;;;;;;-144.73;69.45;54456.97;5003313;28;20036;-69
2023/04/14 10:26:08;;;;;;;11.45;2.00;;;;;;;-144.73;69.72;54465.16;5002768;28;20065;-70
2023/04/14 10:28:36;;;;;;;11.95;2.13;;;;;;;-144.73;70.87;54491.84;4986995;28;20053;-68
2023/04/14 10:31:07;;;;;;;8.35;2.30;;;;;;;-144.73;69.32;54454.91;4989106;28;20042;-69
2023/04/14 10:33:36;;;;;;;11.70;2.20;;;;;;;-144.73;68.92;54467.22;4994515;28;20033;-69
2023/04/14 10:36:03;;;;;;;13.18;2.33;;;;;;;-144.73;68.40;54469.28;4988567;28;20280;-69
2023/04/14 10:39:00;;;;;;;8.57;1.75;;;;;;;-144.73;67.13;54446.69;4999537;28;20151;-69
2023/04/14 10:41:26;;;;;;;13.95;1.90;;;;;;;-144.73;68.08;54489.81;4990414;28;20046;-69
2023/04/14 10:43:51;;;;;;;8.20;2.20;;;;;;;-144.73;67.66;54485.69;4991619;28;20026;-69
2023/04/14 10:46:16;;;;;;;7.35;1.77;;;;;;;-144.73;67.06;54461.06;4992393;28;20091;-69
2023/04/14 10:48:46;;;;;;;10.18;2.45;;;;;;;-144.73;68.43;54479.53;4993393;28;20022;-70
2023/04/14 10:51:11;;;;;;;9.02;2.30;;;;;;;-144.73;66.63;54485.69;4996025;28;20096;-69
2023/04/14 10:53:53;;;;;;;10.65;2.20;;;;;;;-144.73;68.63;54485.69;5001962;28;20021;-69
2023/04/14 10:56:20;;;;;;;16.23;2.38;;;;;;;-144.73;67.21;54448.75;4999052;28;20034;-71
2023/04/14 10:58:57;;;;;;;22.95;2.47;;;;;;;-144.73;69.35;54473.38;5004462;28;20120;-68
2023/04/14 11:01:25;;;;;;;14.93;2.42;;;;;;;-144.73;69.10;54481.59;5000064;28;20038;-68